createdAt,value
2022-09-16T00:04:45.790Z,27.8
2022-09-16T00:10:16.263Z,27.8
2022-09-16T00:15:45.723Z,27.8
2022-09-16T00:21:16.230Z,27.8
2022-09-16T00:26:46.683Z,27.7
2022-09-16T00:32:16.170Z,27.7
2022-09-16T00:37:46.808Z,27.7
2022-09-16T00:43:17.246Z,27.7
2022-09-16T00:48:46.741Z,27.7
2022-09-16T00:54:17.262Z,27.7
2022-09-16T00:59:47.705Z,27.7
2022-09-16T01:05:17.208Z,27.7
2022-09-16T01:10:47.699Z,27.7
2022-09-16T01:16:18.183Z,27.7
2022-09-16T01:21:48.652Z,27.7
2022-09-16T01:27:18.168Z,27.7
2022-09-16T01:32:48.609Z,27.7
2022-09-16T01:38:19.070Z,27.6
2022-09-16T01:43:49.571Z,27.6
2022-09-16T01:49:19.047Z,27.6
2022-09-16T01:54:49.542Z,27.7
2022-09-16T02:00:20.031Z,27.6
2022-09-16T02:05:49.500Z,27.6
2022-09-16T02:11:19.965Z,27.6
2022-09-16T02:16:50.481Z,27.6
2022-09-16T02:22:19.923Z,27.6
2022-09-16T02:27:50.395Z,27.6
2022-09-16T02:33:20.898Z,27.6
2022-09-16T02:38:50.357Z,27.6
2022-09-16T02:44:19.858Z,27.6
2022-09-16T02:49:50.383Z,27.6
2022-09-16T02:55:20.818Z,27.6
2022-09-16T03:00:50.306Z,27.6
2022-09-16T03:06:20.831Z,27.6
2022-09-16T03:11:51.273Z,27.6
2022-09-16T03:17:20.756Z,27.6
2022-09-16T03:22:51.265Z,27.6
2022-09-16T03:28:20.726Z,27.6
2022-09-16T03:33:51.194Z,27.6
2022-09-16T03:39:21.698Z,27.6
2022-09-16T03:44:52.143Z,27.6
2022-09-16T03:50:21.642Z,27.6
2022-09-16T03:55:52.152Z,27.5
2022-09-16T04:01:22.649Z,27.5
2022-09-16T04:06:52.101Z,27.5
2022-09-16T04:12:22.617Z,27.5
2022-09-16T04:17:53.050Z,27.5
2022-09-16T04:23:22.563Z,27.5
2022-09-16T04:28:53.059Z,27.5
2022-09-16T04:34:23.492Z,27.5
2022-09-16T04:39:53.000Z,27.5
2022-09-16T04:45:23.509Z,27.5
2022-09-16T04:50:53.933Z,27.5
2022-09-16T04:56:23.587Z,27.5
2022-09-16T05:01:53.991Z,27.5
2022-09-16T05:07:24.362Z,27.5
2022-09-16T05:12:53.872Z,27.5
2022-09-16T05:18:24.475Z,27.5
2022-09-16T05:23:54.825Z,27.5
2022-09-16T05:29:24.303Z,27.5
2022-09-16T05:34:54.905Z,27.5
2022-09-16T05:40:24.351Z,27.5
2022-09-16T05:45:54.765Z,27.5
2022-09-16T05:51:25.347Z,27.6
2022-09-16T05:56:55.681Z,27.6
2022-09-16T06:02:25.227Z,27.6
2022-09-16T06:07:55.777Z,27.6
2022-09-16T06:13:25.140Z,27.6
2022-09-16T06:18:55.755Z,27.7
2022-09-16T06:24:26.219Z,27.8
2022-09-16T06:29:55.579Z,27.9
2022-09-16T06:35:26.057Z,27.9
2022-09-16T06:40:56.679Z,28
2022-09-16T06:46:27.175Z,28.1
2022-09-16T06:51:57.748Z,28.1
2022-09-16T06:57:28.343Z,28.1
2022-09-16T07:02:57.724Z,28.1
2022-09-16T07:08:28.202Z,28.2
2022-09-16T07:13:58.802Z,28.3
2022-09-16T07:19:28.146Z,28.2
2022-09-16T07:24:58.646Z,28.1
2022-09-16T07:30:28.286Z,28.1
2022-09-16T07:35:58.698Z,28.1
2022-09-16T07:41:29.172Z,28
2022-09-16T07:46:58.806Z,28
2022-09-16T07:52:29.185Z,28
2022-09-16T07:57:59.645Z,28.4
2022-09-16T08:03:29.274Z,28.5
2022-09-16T08:09:05.783Z,28.7
2022-09-16T08:14:29.108Z,30
2022-09-16T08:19:59.725Z,30.4
2022-09-16T08:25:30.058Z,30.9
2022-09-16T08:30:59.575Z,31.4
2022-09-16T08:36:30.301Z,31.4
2022-09-16T08:42:00.662Z,30.5
2022-09-16T08:47:30.151Z,30.3
2022-09-16T08:53:00.765Z,30.3
2022-09-16T08:58:31.129Z,30
2022-09-16T09:04:00.593Z,29.6
2022-09-16T09:09:31.211Z,29.3
2022-09-16T09:15:01.542Z,29.4
2022-09-16T09:20:31.146Z,29.4
2022-09-16T09:26:01.738Z,29.7
2022-09-16T09:31:31.237Z,29.5
2022-09-16T09:37:01.631Z,29.2
2022-09-16T09:42:32.224Z,29.8
2022-09-16T09:48:01.584Z,29.8
2022-09-16T09:53:32.030Z,29.5
2022-09-16T09:59:02.657Z,29.5
2022-09-16T10:04:32.050Z,29.7
2022-09-16T10:10:01.474Z,29.5
2022-09-16T10:15:32.085Z,29.5
2022-09-16T10:21:02.404Z,29.6
2022-09-16T10:26:31.908Z,29.5
2022-09-16T10:32:02.537Z,29.4
2022-09-16T10:37:32.895Z,29.4
2022-09-16T10:43:02.323Z,29.4
2022-09-16T10:48:32.948Z,29.4
2022-09-16T10:54:03.277Z,29.4
2022-09-16T10:59:32.762Z,29.3
2022-09-16T11:05:03.395Z,29.3
2022-09-16T11:10:33.844Z,29.3
2022-09-16T11:16:03.384Z,29.3
2022-09-16T11:21:33.921Z,29.3
2022-09-16T11:27:03.288Z,29.3
2022-09-16T11:32:33.802Z,29.2
2022-09-16T11:38:04.355Z,29.2
2022-09-16T11:43:34.725Z,29.2
2022-09-16T11:49:04.198Z,29.2
2022-09-16T11:54:34.795Z,29.3
2022-09-16T12:00:04.141Z,29.3
2022-09-16T12:05:34.600Z,29.4
2022-09-16T12:11:05.198Z,29.4
2022-09-16T12:16:34.571Z,29.3
2022-09-16T12:22:05.024Z,29.2
2022-09-16T12:27:35.628Z,29.3
2022-09-16T12:33:04.977Z,29.4
2022-09-16T12:38:35.442Z,29.2
2022-09-16T12:44:17.150Z,29.1
2022-09-16T12:49:35.522Z,28.9
2022-09-16T12:55:08.588Z,28.9
2022-09-16T13:00:35.642Z,29
2022-09-16T13:06:05.969Z,29.2
2022-09-16T13:12:23.977Z,29.2
2022-09-16T13:17:06.054Z,29
2022-09-16T13:22:36.403Z,28.9
2022-09-16T13:28:05.874Z,28.8
2022-09-16T13:33:36.497Z,28.7
2022-09-16T13:39:06.842Z,28.8
2022-09-16T13:44:36.340Z,28.9
2022-09-16T13:50:07.002Z,28.9
2022-09-16T13:55:36.312Z,28.8
2022-09-16T14:01:06.848Z,28.7
2022-09-16T14:06:37.389Z,28.7
2022-09-16T14:12:06.743Z,28.7
2022-09-16T14:17:37.209Z,28.7
2022-09-16T14:23:07.828Z,28.7
2022-09-16T14:28:38.782Z,28.7
2022-09-16T14:34:07.651Z,28.7
2022-09-16T14:39:38.264Z,28.7
2022-09-16T14:45:07.627Z,28.7
2022-09-16T14:50:38.103Z,28.6
2022-09-16T14:56:08.714Z,28.6
2022-09-16T15:01:38.127Z,28.6
2022-09-16T15:07:11.816Z,28.6
2022-09-16T15:12:38.180Z,28.6
2022-09-16T15:19:14.612Z,28.5
2022-09-16T15:25:51.212Z,28.4
2022-09-16T15:31:20.860Z,28
2022-09-16T15:44:37.164Z,27.9
2022-09-16T15:50:03.433Z,28
2022-09-16T15:55:33.789Z,28.1
2022-09-16T16:01:03.275Z,28.1
2022-09-16T16:06:33.868Z,28.1
2022-09-16T16:12:03.231Z,28.1
2022-09-16T16:17:33.683Z,28.1
2022-09-16T16:23:04.304Z,28.1
2022-09-16T16:28:34.653Z,28
2022-09-16T16:34:04.140Z,28
2022-09-16T16:39:34.760Z,28
2022-09-16T16:45:05.079Z,28
2022-09-16T16:50:34.583Z,28
2022-09-16T16:56:05.167Z,28
2022-09-16T17:01:35.676Z,28.1
2022-09-16T17:12:35.618Z,28.2
2022-09-16T17:18:05.986Z,28.2
2022-09-16T17:23:36.449Z,27.8
2022-09-16T17:29:14.789Z,27.7
2022-09-16T17:34:35.452Z,27.7
2022-09-16T17:40:05.948Z,27.8
2022-09-16T17:45:36.535Z,27.7
2022-09-16T17:51:05.902Z,27.6
2022-09-16T17:56:36.384Z,27.7
2022-09-16T18:02:06.980Z,27.7
2022-09-16T18:07:36.331Z,27.7
2022-09-16T18:13:06.824Z,27.7
2022-09-16T18:18:37.410Z,27.8
2022-09-16T18:24:06.797Z,27.8
2022-09-16T18:29:37.300Z,27.8
2022-09-16T18:35:07.867Z,27.8
2022-09-16T18:40:39.480Z,27.8
2022-09-16T18:46:07.790Z,27.8
2022-09-16T18:51:38.307Z,27.8
2022-09-16T18:57:07.682Z,27.7
2022-09-16T19:02:38.262Z,27.7
2022-09-16T19:08:08.761Z,27.7
2022-09-16T19:13:38.146Z,27.7
2022-09-16T19:19:08.600Z,27.7
2022-09-16T19:24:39.188Z,27.7
2022-09-16T19:30:08.565Z,27.7
2022-09-16T19:35:39.044Z,27.6
2022-09-16T19:41:09.650Z,27.7
2022-09-16T19:46:39.008Z,27.6
2022-09-16T19:52:09.472Z,27.5
2022-09-16T19:57:40.083Z,27.5
2022-09-16T20:03:09.472Z,27.4
2022-09-16T20:08:39.948Z,27.4
2022-09-16T20:14:09.557Z,27.4
2022-09-16T20:19:39.922Z,27.4
2022-09-16T20:25:22.533Z,27.4
2022-09-16T20:30:39.998Z,27.3
2022-09-16T20:36:10.368Z,27.3
2022-09-16T20:41:40.845Z,27.3
2022-09-16T20:47:10.463Z,27.3
2022-09-16T20:52:40.824Z,27.3
2022-09-16T20:58:10.295Z,27.3
2022-09-16T21:03:40.907Z,27.3
2022-09-16T21:09:11.250Z,27.3
2022-09-16T21:14:41.736Z,27.3
2022-09-16T21:20:11.412Z,27.2
2022-09-16T21:25:41.722Z,27.2
2022-09-16T21:31:12.350Z,27.2
2022-09-16T21:36:42.801Z,27.2
2022-09-16T21:42:12.166Z,27.2
2022-09-16T21:47:42.646Z,27.2
2022-09-16T21:53:13.258Z,27.2
2022-09-16T21:58:42.601Z,27.2
2022-09-16T22:04:13.099Z,27.2
2022-09-16T22:09:42.701Z,27.2
2022-09-16T22:15:13.060Z,27.2
2022-09-16T22:20:43.534Z,27.2
2022-09-16T22:26:13.146Z,27.2
2022-09-16T22:31:43.594Z,27.2
2022-09-16T22:37:14.048Z,27.2
2022-09-16T22:42:43.666Z,27.2
2022-09-16T22:48:14.004Z,27.1
2022-09-16T22:53:44.503Z,27.2
2022-09-16T22:59:14.109Z,27.2
2022-09-16T23:04:44.464Z,27.2
2022-09-16T23:10:14.947Z,27.2
2022-09-16T23:15:44.598Z,27.2
2022-09-16T23:21:14.898Z,27.2
2022-09-16T23:26:44.400Z,27.2
2022-09-16T23:32:14.993Z,27.2
2022-09-16T23:37:45.352Z,27.2
2022-09-16T23:43:14.836Z,27.2
2022-09-16T23:48:45.459Z,27.2
2022-09-16T23:54:15.902Z,27.2
2022-09-16T23:59:45.391Z,27.1
